sensor_id;sensor_type;location;lat;lon;timestamp;pressure;altitude;pressure_sealevel;temperature;humidity
63090;BME280;49174;43.198;27.824;2023-03-14T00:01:39;102186.94;;;-1.45;89.52
63090;BME280;49174;43.198;27.824;2023-03-14T00:06:46;102177.88;;;-1.41;90.75
63090;BME280;49174;43.198;27.824;2023-03-14T00:40:11;102122.53;;;-1.29;90.74
63090;BME280;49174;43.198;27.824;2023-03-14T00:45:18;102118.25;;;-1.32;90.88
63090;BME280;49174;43.198;27.824;2023-03-14T00:47:44;102108.19;;;-1.41;90.65
63090;BME280;49174;43.198;27.824;2023-03-14T00:50:11;102108.84;;;-1.53;89.88
63090;BME280;49174;43.198;27.824;2023-03-14T00:52:37;102105.75;;;-1.62;90.57
63090;BME280;49174;43.198;27.824;2023-03-14T00:55:03;102107.91;;;-1.68;91.80
63090;BME280;49174;43.198;27.824;2023-03-14T00:57:28;102101.16;;;-1.74;92.60
63090;BME280;49174;43.198;27.824;2023-03-14T00:59:54;102091.94;;;-1.83;92.47
63090;BME280;49174;43.198;27.824;2023-03-14T01:02:19;102096.72;;;-1.89;92.54
63090;BME280;49174;43.198;27.824;2023-03-14T01:04:47;102089.88;;;-1.93;92.74
63090;BME280;49174;43.198;27.824;2023-03-14T01:07:13;102097.97;;;-1.96;92.62
63090;BME280;49174;43.198;27.824;2023-03-14T03:52:01;102076.03;;;-2.32;98.68
63090;BME280;49174;43.198;27.824;2023-03-14T03:54:27;102073.50;;;-2.33;99.58
63090;BME280;49174;43.198;27.824;2023-03-14T04:29:07;102074.97;;;-2.28;97.39
63090;BME280;49174;43.198;27.824;2023-03-14T04:31:33;102063.38;;;-2.25;97.25
63090;BME280;49174;43.198;27.824;2023-03-14T04:33:58;102078.22;;;-2.22;96.39
63090;BME280;49174;43.198;27.824;2023-03-14T04:36:24;102069.19;;;-2.18;95.38
63090;BME280;49174;43.198;27.824;2023-03-14T04:38:49;102071.19;;;-2.23;94.32
63090;BME280;49174;43.198;27.824;2023-03-14T04:41:15;102074.78;;;-2.25;94.54
63090;BME280;49174;43.198;27.824;2023-03-14T04:43:40;102084.59;;;-2.27;95.12
63090;BME280;49174;43.198;27.824;2023-03-14T04:46:06;102073.41;;;-2.32;96.17
63090;BME280;49174;43.198;27.824;2023-03-14T04:48:32;102067.94;;;-2.29;96.90
63090;BME280;49174;43.198;27.824;2023-03-14T04:50:57;102072.84;;;-2.21;97.53
63090;BME280;49174;43.198;27.824;2023-03-14T04:53:23;102067.38;;;-2.18;96.67
63090;BME280;49174;43.198;27.824;2023-03-14T04:55:50;102068.84;;;-2.12;97.07
63090;BME280;49174;43.198;27.824;2023-03-14T04:58:16;102065.78;;;-2.05;97.40
63090;BME280;49174;43.198;27.824;2023-03-14T05:00:41;102058.53;;;-2.01;97.37
63090;BME280;49174;43.198;27.824;2023-03-14T05:03:07;102061.22;;;-1.85;98.26
63090;BME280;49174;43.198;27.824;2023-03-14T05:05:32;102068.03;;;-1.65;100.00
63090;BME280;49174;43.198;27.824;2023-03-14T05:07:58;102067.03;;;-1.47;100.00
63090;BME280;49174;43.198;27.824;2023-03-14T05:10:23;102059.56;;;-1.40;100.00
63090;BME280;49174;43.198;27.824;2023-03-14T05:12:49;102060.59;;;-1.27;100.00
63090;BME280;49174;43.198;27.824;2023-03-14T05:15:14;102070.47;;;-1.15;100.00
63090;BME280;49174;43.198;27.824;2023-03-14T05:17:40;102061.91;;;-1.04;100.00
63090;BME280;49174;43.198;27.824;2023-03-14T05:20:06;102057.00;;;-0.96;100.00
63090;BME280;49174;43.198;27.824;2023-03-14T05:22:39;102066.63;;;-0.79;100.00
63090;BME280;49174;43.198;27.824;2023-03-14T05:25:05;102071.94;;;-0.64;100.00
63090;BME280;49174;43.198;27.824;2023-03-14T05:27:31;102065.59;;;-0.62;100.00
63090;BME280;49174;43.198;27.824;2023-03-14T05:29:57;102076.41;;;-0.51;100.00
63090;BME280;49174;43.198;27.824;2023-03-14T05:32:22;102070.47;;;-0.40;100.00
63090;BME280;49174;43.198;27.824;2023-03-14T05:34:48;102065.94;;;-0.38;100.00
63090;BME280;49174;43.198;27.824;2023-03-14T05:37:13;102072.75;;;-0.34;100.00
63090;BME280;49174;43.198;27.824;2023-03-14T05:39:39;102066.22;;;-0.28;100.00
63090;BME280;49174;43.198;27.824;2023-03-14T05:42:05;102070.88;;;-0.17;100.00
63090;BME280;49174;43.198;27.824;2023-03-14T05:44:30;102066.78;;;-0.09;100.00
63090;BME280;49174;43.198;27.824;2023-03-14T05:46:56;102070.50;;;0.03;100.00
63090;BME280;49174;43.198;27.824;2023-03-14T05:49:21;102061.19;;;0.10;100.00
63090;BME280;49174;43.198;27.824;2023-03-14T05:51:47;102060.50;;;0.21;100.00
63090;BME280;49174;43.198;27.824;2023-03-14T05:54:12;102068.06;;;0.27;100.00
63090;BME280;49174;43.198;27.824;2023-03-14T05:56:38;102063.50;;;0.43;100.00
63090;BME280;49174;43.198;27.824;2023-03-14T05:59:03;102061.13;;;0.53;100.00
63090;BME280;49174;43.198;27.824;2023-03-14T06:01:29;102063.16;;;0.62;100.00
63090;BME280;49174;43.198;27.824;2023-03-14T06:03:55;102047.47;;;0.72;100.00
63090;BME280;49174;43.198;27.824;2023-03-14T06:06:20;102054.63;;;0.84;100.00
63090;BME280;49174;43.198;27.824;2023-03-14T06:08:46;102057.22;;;0.99;100.00
63090;BME280;49174;43.198;27.824;2023-03-14T06:11:11;102054.63;;;1.11;100.00
63090;BME280;49174;43.198;27.824;2023-03-14T06:13:37;102056.31;;;1.25;100.00
63090;BME280;49174;43.198;27.824;2023-03-14T06:16:03;102059.13;;;1.37;100.00
63090;BME280;49174;43.198;27.824;2023-03-14T06:18:28;102067.63;;;1.54;100.00
63090;BME280;49174;43.198;27.824;2023-03-14T06:20:54;102052.09;;;1.61;100.00
63090;BME280;49174;43.198;27.824;2023-03-14T06:23:21;102052.72;;;1.77;99.32
63090;BME280;49174;43.198;27.824;2023-03-14T06:25:47;102056.31;;;1.89;98.34
63090;BME280;49174;43.198;27.824;2023-03-14T06:28:12;102049.53;;;1.98;97.71
63090;BME280;49174;43.198;27.824;2023-03-14T06:30:38;102049.09;;;2.04;97.94
63090;BME280;49174;43.198;27.824;2023-03-14T06:33:04;102050.41;;;2.22;98.14
63090;BME280;49174;43.198;27.824;2023-03-14T06:35:29;102043.38;;;2.34;98.04
63090;BME280;49174;43.198;27.824;2023-03-14T06:37:55;102039.19;;;2.43;98.17
63090;BME280;49174;43.198;27.824;2023-03-14T06:40:20;102044.13;;;2.60;96.93
63090;BME280;49174;43.198;27.824;2023-03-14T06:42:47;102041.72;;;2.68;96.69
63090;BME280;49174;43.198;27.824;2023-03-14T06:45:13;102035.25;;;2.84;95.92
63090;BME280;49174;43.198;27.824;2023-03-14T06:47:39;102041.03;;;3.02;95.62
63090;BME280;49174;43.198;27.824;2023-03-14T06:50:05;102032.78;;;3.05;94.79
63090;BME280;49174;43.198;27.824;2023-03-14T06:52:32;102027.59;;;3.14;95.27
63090;BME280;49174;43.198;27.824;2023-03-14T06:54:59;102023.25;;;3.25;95.28
63090;BME280;49174;43.198;27.824;2023-03-14T06:57:24;102025.97;;;3.36;94.79
63090;BME280;49174;43.198;27.824;2023-03-14T06:59:50;102019.44;;;3.51;94.31
63090;BME280;49174;43.198;27.824;2023-03-14T07:02:16;102012.91;;;3.67;94.42
63090;BME280;49174;43.198;27.824;2023-03-14T07:04:41;102016.66;;;3.87;94.43
63090;BME280;49174;43.198;27.824;2023-03-14T07:07:07;102013.03;;;3.99;92.38
63090;BME280;49174;43.198;27.824;2023-03-14T07:09:33;102006.34;;;4.05;92.27
63090;BME280;49174;43.198;27.824;2023-03-14T07:12:00;101998.78;;;4.21;91.54
63090;BME280;49174;43.198;27.824;2023-03-14T07:14:26;102001.66;;;4.40;91.58
63090;BME280;49174;43.198;27.824;2023-03-14T07:16:52;101994.56;;;4.51;90.76
63090;BME280;49174;43.198;27.824;2023-03-14T07:19:17;101985.81;;;4.60;90.07
63090;BME280;49174;43.198;27.824;2023-03-14T07:21:43;101987.06;;;4.77;90.03
63090;BME280;49174;43.198;27.824;2023-03-14T07:24:09;101995.25;;;4.96;89.57
63090;BME280;49174;43.198;27.824;2023-03-14T07:26:35;101997.13;;;5.05;88.97
63090;BME280;49174;43.198;27.824;2023-03-14T07:29:00;101994.31;;;5.07;88.97
63090;BME280;49174;43.198;27.824;2023-03-14T07:31:29;101995.59;;;5.12;88.63
63090;BME280;49174;43.198;27.824;2023-03-14T07:33:55;101980.56;;;5.32;86.51
63090;BME280;49174;43.198;27.824;2023-03-14T07:36:20;101982.41;;;5.42;87.39
63090;BME280;49174;43.198;27.824;2023-03-14T07:38:46;101977.00;;;5.63;83.15
63090;BME280;49174;43.198;27.824;2023-03-14T07:41:12;101975.56;;;5.89;84.19
63090;BME280;49174;43.198;27.824;2023-03-14T07:43:38;101968.91;;;6.04;82.58
63090;BME280;49174;43.198;27.824;2023-03-14T07:46:04;101966.38;;;6.22;81.74
63090;BME280;49174;43.198;27.824;2023-03-14T07:48:30;101969.53;;;6.57;82.15
63090;BME280;49174;43.198;27.824;2023-03-14T07:50:56;101968.13;;;6.91;79.33
63090;BME280;49174;43.198;27.824;2023-03-14T07:53:22;101972.59;;;7.10;77.93
63090;BME280;49174;43.198;27.824;2023-03-14T07:55:50;101959.03;;;7.22;77.91
63090;BME280;49174;43.198;27.824;2023-03-14T07:58:16;101961.34;;;7.44;74.76
63090;BME280;49174;43.198;27.824;2023-03-14T08:00:42;101950.13;;;7.58;74.49
63090;BME280;49174;43.198;27.824;2023-03-14T08:03:08;101949.22;;;7.77;74.01
63090;BME280;49174;43.198;27.824;2023-03-14T08:05:35;101951.09;;;7.95;72.91
63090;BME280;49174;43.198;27.824;2023-03-14T08:08:01;101952.13;;;8.12;72.37
63090;BME280;49174;43.198;27.824;2023-03-14T08:10:27;101946.09;;;8.27;71.97
63090;BME280;49174;43.198;27.824;2023-03-14T08:12:55;101951.28;;;8.39;71.49
63090;BME280;49174;43.198;27.824;2023-03-14T08:15:21;101944.44;;;8.44;72.87
63090;BME280;49174;43.198;27.824;2023-03-14T08:17:48;101931.28;;;8.59;72.13
63090;BME280;49174;43.198;27.824;2023-03-14T08:20:20;101924.13;;;8.68;72.00
63090;BME280;49174;43.198;27.824;2023-03-14T08:22:46;101924.56;;;8.81;71.76
63090;BME280;49174;43.198;27.824;2023-03-14T08:25:12;101922.00;;;8.98;70.86
63090;BME280;49174;43.198;27.824;2023-03-14T08:27:37;101924.44;;;9.09;70.13
63090;BME280;49174;43.198;27.824;2023-03-14T08:30:11;101922.00;;;9.24;69.73
63090;BME280;49174;43.198;27.824;2023-03-14T08:32:37;101921.91;;;9.33;68.41
63090;BME280;49174;43.198;27.824;2023-03-14T08:35:05;101910.22;;;9.59;67.04
63090;BME280;49174;43.198;27.824;2023-03-14T08:37:31;101913.09;;;9.66;64.05
63090;BME280;49174;43.198;27.824;2023-03-14T08:39:57;101908.69;;;9.56;62.65
63090;BME280;49174;43.198;27.824;2023-03-14T08:42:22;101907.69;;;9.57;62.56
63090;BME280;49174;43.198;27.824;2023-03-14T08:44:48;101909.97;;;9.78;58.10
63090;BME280;49174;43.198;27.824;2023-03-14T08:47:15;101901.25;;;9.93;59.54
63090;BME280;49174;43.198;27.824;2023-03-14T08:49:40;101895.53;;;9.96;63.71
63090;BME280;49174;43.198;27.824;2023-03-14T08:52:06;101884.88;;;9.94;55.50
63090;BME280;49174;43.198;27.824;2023-03-14T08:54:33;101883.13;;;10.27;54.19
63090;BME280;49174;43.198;27.824;2023-03-14T08:56:59;101878.00;;;10.00;62.54
63090;BME280;49174;43.198;27.824;2023-03-14T08:59:25;101876.47;;;9.81;61.73
63090;BME280;49174;43.198;27.824;2023-03-14T09:01:51;101877.34;;;10.06;64.83
63090;BME280;49174;43.198;27.824;2023-03-14T09:06:59;101869.00;;;10.34;63.08
63090;BME280;49174;43.198;27.824;2023-03-14T09:09:25;101874.56;;;10.48;61.02
63090;BME280;49174;43.198;27.824;2023-03-14T09:11:55;101859.69;;;10.44;63.41
63090;BME280;49174;43.198;27.824;2023-03-14T09:14:21;101859.00;;;10.67;63.21
63090;BME280;49174;43.198;27.824;2023-03-14T09:16:47;101859.19;;;10.82;61.98
63090;BME280;49174;43.198;27.824;2023-03-14T09:19:18;101862.22;;;10.87;61.90
63090;BME280;49174;43.198;27.824;2023-03-14T09:21:53;101853.59;;;10.75;62.41
63090;BME280;49174;43.198;27.824;2023-03-14T09:24:29;101853.09;;;10.80;61.98
63090;BME280;49174;43.198;27.824;2023-03-14T09:26:56;101852.06;;;10.97;63.44
63090;BME280;49174;43.198;27.824;2023-03-14T09:29:28;101846.31;;;11.00;60.02
63090;BME280;49174;43.198;27.824;2023-03-14T09:32:24;101838.84;;;11.18;60.74
63090;BME280;49174;43.198;27.824;2023-03-14T09:34:50;101837.63;;;10.49;62.31
63090;BME280;49174;43.198;27.824;2023-03-14T09:37:22;101840.63;;;10.87;63.81
63090;BME280;49174;43.198;27.824;2023-03-14T09:39:50;101843.31;;;10.95;62.25
63090;BME280;49174;43.198;27.824;2023-03-14T09:42:22;101833.78;;;11.15;57.92
63090;BME280;49174;43.198;27.824;2023-03-14T09:45:17;101847.56;;;11.37;57.67
63090;BME280;49174;43.198;27.824;2023-03-14T09:48:26;101841.53;;;11.58;54.53
63090;BME280;49174;43.198;27.824;2023-03-14T09:50:56;101838.53;;;11.45;52.74
63090;BME280;49174;43.198;27.824;2023-03-14T09:53:55;101843.41;;;11.57;45.42
63090;BME280;49174;43.198;27.824;2023-03-14T09:56:26;101828.59;;;11.45;43.75
63090;BME280;49174;43.198;27.824;2023-03-14T09:58:59;101827.94;;;11.74;44.98
63090;BME280;49174;43.198;27.824;2023-03-14T10:01:37;101825.16;;;11.20;56.99
63090;BME280;49174;43.198;27.824;2023-03-14T10:04:25;101812.47;;;11.29;59.51
63090;BME280;49174;43.198;27.824;2023-03-14T10:07:27;101817.41;;;11.56;58.26
63090;BME280;49174;43.198;27.824;2023-03-14T10:09:53;101811.03;;;11.41;58.82
63090;BME280;49174;43.198;27.824;2023-03-14T10:12:30;101816.09;;;11.44;58.22
63090;BME280;49174;43.198;27.824;2023-03-14T10:15:31;101807.44;;;11.88;58.48
63090;BME280;49174;43.198;27.824;2023-03-14T10:18:00;101797.94;;;12.15;58.66
63090;BME280;49174;43.198;27.824;2023-03-14T10:20:43;101798.97;;;12.52;56.83
63090;BME280;49174;43.198;27.824;2023-03-14T10:23:28;101789.63;;;12.55;57.88
63090;BME280;49174;43.198;27.824;2023-03-14T10:26:13;101788.63;;;12.85;55.47
63090;BME280;49174;43.198;27.824;2023-03-14T10:28:52;101784.91;;;12.34;58.09
63090;BME280;49174;43.198;27.824;2023-03-14T10:31:18;101780.00;;;12.37;57.22
63090;BME280;49174;43.198;27.824;2023-03-14T10:34:17;101775.84;;;12.94;55.70
63090;BME280;49174;43.198;27.824;2023-03-14T10:36:46;101779.28;;;13.32;54.47
63090;BME280;49174;43.198;27.824;2023-03-14T10:39:24;101761.50;;;13.45;54.72
63090;BME280;49174;43.198;27.824;2023-03-14T12:48:19;101502.25;;;14.06;51.21
63090;BME280;49174;43.198;27.824;2023-03-14T12:50:55;101501.66;;;14.11;52.03
63090;BME280;49174;43.198;27.824;2023-03-14T12:56:20;101488.19;;;13.90;52.61
63090;BME280;49174;43.198;27.824;2023-03-14T12:59:09;101485.06;;;13.93;51.84
63090;BME280;49174;43.198;27.824;2023-03-14T13:01:47;101481.91;;;13.89;52.89
63090;BME280;49174;43.198;27.824;2023-03-14T13:04:18;101478.81;;;13.57;53.68
63090;BME280;49174;43.198;27.824;2023-03-14T13:14:58;101464.50;;;13.14;53.35
63090;BME280;49174;43.198;27.824;2023-03-14T13:17:32;101467.22;;;12.49;54.26
63090;BME280;49174;43.198;27.824;2023-03-14T13:23:30;101468.53;;;12.75;55.89
63090;BME280;49174;43.198;27.824;2023-03-14T13:31:23;101456.47;;;12.78;54.39
63090;BME280;49174;43.198;27.824;2023-03-14T13:34:05;101453.63;;;12.86;55.11
63090;BME280;49174;43.198;27.824;2023-03-14T13:36:34;101439.78;;;12.74;55.28
63090;BME280;49174;43.198;27.824;2023-03-14T13:39:01;101439.78;;;12.52;55.64
63090;BME280;49174;43.198;27.824;2023-03-14T13:41:28;101434.88;;;12.63;55.95
63090;BME280;49174;43.198;27.824;2023-03-14T13:44:02;101425.19;;;12.53;55.04
63090;BME280;49174;43.198;27.824;2023-03-14T13:46:29;101425.66;;;12.57;56.95
63090;BME280;49174;43.198;27.824;2023-03-14T13:48:58;101416.81;;;12.70;53.46
63090;BME280;49174;43.198;27.824;2023-03-14T13:51:25;101421.72;;;12.38;51.23
63090;BME280;49174;43.198;27.824;2023-03-14T13:53:54;101418.09;;;12.31;56.12
63090;BME280;49174;43.198;27.824;2023-03-14T13:56:28;101416.97;;;12.40;56.06
63090;BME280;49174;43.198;27.824;2023-03-14T13:58:54;101408.00;;;12.40;56.24
63090;BME280;49174;43.198;27.824;2023-03-14T14:03:51;101407.88;;;12.48;50.94
63090;BME280;49174;43.198;27.824;2023-03-14T14:06:36;101408.50;;;11.92;51.51
63090;BME280;49174;43.198;27.824;2023-03-14T14:09:15;101404.13;;;11.91;51.73
63090;BME280;49174;43.198;27.824;2023-03-14T14:11:52;101405.53;;;11.57;53.64
63090;BME280;49174;43.198;27.824;2023-03-14T14:14:44;101401.81;;;11.88;50.62
63090;BME280;49174;43.198;27.824;2023-03-14T14:17:21;101396.78;;;11.55;54.30
63090;BME280;49174;43.198;27.824;2023-03-14T14:19:49;101396.13;;;11.68;52.42
63090;BME280;49174;43.198;27.824;2023-03-14T14:22:17;101389.78;;;11.46;54.08
63090;BME280;49174;43.198;27.824;2023-03-14T14:24:42;101388.41;;;11.21;53.91
63090;BME280;49174;43.198;27.824;2023-03-14T14:27:17;101384.97;;;10.89;54.81
63090;BME280;49174;43.198;27.824;2023-03-14T14:29:44;101384.66;;;10.69;57.75
63090;BME280;49174;43.198;27.824;2023-03-14T14:32:14;101381.88;;;10.39;59.22
63090;BME280;49174;43.198;27.824;2023-03-14T14:34:42;101387.38;;;10.46;59.36
63090;BME280;49174;43.198;27.824;2023-03-14T14:37:21;101376.44;;;10.47;58.31
63090;BME280;49174;43.198;27.824;2023-03-14T14:39:48;101373.91;;;10.46;58.72
63090;BME280;49174;43.198;27.824;2023-03-14T14:42:16;101374.31;;;10.58;58.80
63090;BME280;49174;43.198;27.824;2023-03-14T14:44:43;101381.03;;;10.39;59.52
63090;BME280;49174;43.198;27.824;2023-03-14T14:47:15;101373.16;;;10.52;59.96
63090;BME280;49174;43.198;27.824;2023-03-14T14:49:43;101379.16;;;9.46;60.38
63090;BME280;49174;43.198;27.824;2023-03-14T14:52:18;101375.94;;;9.50;62.64
63090;BME280;49174;43.198;27.824;2023-03-14T14:54:46;101369.78;;;9.73;61.34
63090;BME280;49174;43.198;27.824;2023-03-14T14:57:22;101382.88;;;9.45;63.49
63090;BME280;49174;43.198;27.824;2023-03-14T14:59:49;101372.19;;;9.04;64.79
63090;BME280;49174;43.198;27.824;2023-03-14T15:04:59;101368.03;;;9.49;64.05
63090;BME280;49174;43.198;27.824;2023-03-14T15:07:25;101362.47;;;9.50;65.69
63090;BME280;49174;43.198;27.824;2023-03-14T15:09:50;101355.44;;;9.41;65.59
63090;BME280;49174;43.198;27.824;2023-03-14T15:12:16;101364.81;;;8.98;67.67
63090;BME280;49174;43.198;27.824;2023-03-14T15:14:41;101355.56;;;9.00;68.20
63090;BME280;49174;43.198;27.824;2023-03-14T15:17:10;101342.78;;;8.86;68.95
63090;BME280;49174;43.198;27.824;2023-03-14T15:19:37;101341.78;;;8.87;68.67
63090;BME280;49174;43.198;27.824;2023-03-14T15:22:07;101334.56;;;8.71;69.59
63090;BME280;49174;43.198;27.824;2023-03-14T15:24:34;101338.28;;;8.70;70.79
63090;BME280;49174;43.198;27.824;2023-03-14T15:27:00;101335.94;;;8.67;70.31
63090;BME280;49174;43.198;27.824;2023-03-14T15:29:25;101337.56;;;8.27;71.72
63090;BME280;49174;43.198;27.824;2023-03-14T15:31:51;101325.47;;;8.06;74.13
63090;BME280;49174;43.198;27.824;2023-03-14T15:34:16;101329.97;;;7.90;76.06
63090;BME280;49174;43.198;27.824;2023-03-14T15:36:42;101329.16;;;7.89;75.80
63090;BME280;49174;43.198;27.824;2023-03-14T15:39:09;101331.78;;;7.65;76.96
63090;BME280;49174;43.198;27.824;2023-03-14T15:41:35;101328.41;;;7.63;76.73
63090;BME280;49174;43.198;27.824;2023-03-14T15:44:00;101327.31;;;7.39;77.02
63090;BME280;49174;43.198;27.824;2023-03-14T15:46:28;101322.94;;;7.38;77.08
63090;BME280;49174;43.198;27.824;2023-03-14T15:48:54;101325.41;;;7.23;79.17
63090;BME280;49174;43.198;27.824;2023-03-14T15:51:19;101329.94;;;7.23;79.80
63090;BME280;49174;43.198;27.824;2023-03-14T15:53:45;101324.53;;;7.14;80.61
63090;BME280;49174;43.198;27.824;2023-03-14T15:56:13;101319.25;;;7.05;80.86
63090;BME280;49174;43.198;27.824;2023-03-14T15:58:39;101316.00;;;6.93;81.89
63090;BME280;49174;43.198;27.824;2023-03-14T16:01:06;101320.81;;;6.81;82.29
63090;BME280;49174;43.198;27.824;2023-03-14T16:03:34;101317.03;;;6.92;82.58
63090;BME280;49174;43.198;27.824;2023-03-14T16:06:00;101322.34;;;6.84;82.44
63090;BME280;49174;43.198;27.824;2023-03-14T16:08:27;101331.69;;;6.80;82.90
63090;BME280;49174;43.198;27.824;2023-03-14T16:10:56;101328.81;;;6.73;83.63
63090;BME280;49174;43.198;27.824;2023-03-14T16:13:22;101332.94;;;6.67;84.05
63090;BME280;49174;43.198;27.824;2023-03-14T16:16:02;101336.31;;;6.69;84.57
63090;BME280;49174;43.198;27.824;2023-03-14T16:18:30;101342.22;;;6.73;84.25
63090;BME280;49174;43.198;27.824;2023-03-14T16:21:13;101336.53;;;6.76;83.96
63090;BME280;49174;43.198;27.824;2023-03-14T16:23:39;101339.44;;;6.83;83.50
63090;BME280;49174;43.198;27.824;2023-03-14T16:26:07;101343.88;;;6.74;84.31
63090;BME280;49174;43.198;27.824;2023-03-14T16:28:33;101342.97;;;6.65;84.39
63090;BME280;49174;43.198;27.824;2023-03-14T16:31:04;101336.41;;;6.60;84.64
63090;BME280;49174;43.198;27.824;2023-03-14T16:33:30;101339.97;;;6.60;84.46
63090;BME280;49174;43.198;27.824;2023-03-14T16:35:58;101342.66;;;6.68;84.30
63090;BME280;49174;43.198;27.824;2023-03-14T16:38:26;101333.25;;;6.64;84.17
63090;BME280;49174;43.198;27.824;2023-03-14T16:41:15;101334.47;;;6.70;83.38
63090;BME280;49174;43.198;27.824;2023-03-14T16:43:41;101332.94;;;6.67;83.53
63090;BME280;49174;43.198;27.824;2023-03-14T16:46:11;101336.97;;;6.63;82.96
63090;BME280;49174;43.198;27.824;2023-03-14T16:48:38;101345.66;;;6.65;82.62
63090;BME280;49174;43.198;27.824;2023-03-14T16:51:04;101338.84;;;6.71;83.05
63090;BME280;49174;43.198;27.824;2023-03-14T16:53:29;101337.16;;;6.70;83.13
63090;BME280;49174;43.198;27.824;2023-03-14T16:55:55;101335.88;;;6.56;83.40
63090;BME280;49174;43.198;27.824;2023-03-14T16:58:21;101338.44;;;6.58;83.47
63090;BME280;49174;43.198;27.824;2023-03-14T17:00:47;101337.78;;;6.64;82.93
63090;BME280;49174;43.198;27.824;2023-03-14T17:03:14;101336.19;;;6.53;83.19
63090;BME280;49174;43.198;27.824;2023-03-14T17:05:45;101345.00;;;6.63;83.00
63090;BME280;49174;43.198;27.824;2023-03-14T17:08:11;101345.16;;;6.62;83.71
63090;BME280;49174;43.198;27.824;2023-03-14T17:10:36;101354.41;;;6.67;82.53
63090;BME280;49174;43.198;27.824;2023-03-14T17:13:02;101353.06;;;6.63;82.38
63090;BME280;49174;43.198;27.824;2023-03-14T17:15:28;101353.66;;;6.57;83.87
63090;BME280;49174;43.198;27.824;2023-03-14T17:17:53;101342.72;;;6.51;83.30
63090;BME280;49174;43.198;27.824;2023-03-14T17:20:19;101342.72;;;6.51;82.46
63090;BME280;49174;43.198;27.824;2023-03-14T17:22:44;101347.25;;;6.50;82.68
63090;BME280;49174;43.198;27.824;2023-03-14T17:25:10;101339.66;;;6.45;82.25
63090;BME280;49174;43.198;27.824;2023-03-14T17:27:35;101347.41;;;6.31;82.75
63090;BME280;49174;43.198;27.824;2023-03-14T17:30:03;101348.56;;;6.28;81.98
63090;BME280;49174;43.198;27.824;2023-03-14T17:32:28;101345.19;;;6.26;82.67
63090;BME280;49174;43.198;27.824;2023-03-14T17:34:54;101347.72;;;6.10;83.08
63090;BME280;49174;43.198;27.824;2023-03-14T17:37:19;101341.69;;;6.08;83.55
63090;BME280;49174;43.198;27.824;2023-03-14T17:39:45;101350.16;;;6.03;85.23
63090;BME280;49174;43.198;27.824;2023-03-14T17:42:11;101346.28;;;5.88;84.90
63090;BME280;49174;43.198;27.824;2023-03-14T17:44:36;101338.38;;;5.68;86.54
63090;BME280;49174;43.198;27.824;2023-03-14T17:47:02;101343.06;;;5.66;87.94
63090;BME280;49174;43.198;27.824;2023-03-14T17:49:28;101331.94;;;5.61;88.97
63090;BME280;49174;43.198;27.824;2023-03-14T17:51:53;101336.56;;;5.69;88.53
63090;BME280;49174;43.198;27.824;2023-03-14T17:54:19;101337.31;;;5.79;88.52
63090;BME280;49174;43.198;27.824;2023-03-14T17:56:44;101335.78;;;5.76;88.13
63090;BME280;49174;43.198;27.824;2023-03-14T17:59:10;101330.81;;;5.81;87.97
63090;BME280;49174;43.198;27.824;2023-03-14T18:01:36;101337.88;;;5.82;87.52
63090;BME280;49174;43.198;27.824;2023-03-14T18:04:02;101332.53;;;5.82;87.95
63090;BME280;49174;43.198;27.824;2023-03-14T18:06:28;101325.06;;;5.76;88.44
63090;BME280;49174;43.198;27.824;2023-03-14T18:08:56;101345.53;;;5.77;89.19
63090;BME280;49174;43.198;27.824;2023-03-14T18:11:23;101332.53;;;5.82;88.55
63090;BME280;49174;43.198;27.824;2023-03-14T18:13:49;101330.53;;;5.85;88.51
63090;BME280;49174;43.198;27.824;2023-03-14T18:16:15;101332.34;;;5.84;88.08
63090;BME280;49174;43.198;27.824;2023-03-14T18:18:42;101333.75;;;5.88;88.79
63090;BME280;49174;43.198;27.824;2023-03-14T18:21:08;101334.25;;;5.74;89.41
63090;BME280;49174;43.198;27.824;2023-03-14T18:23:33;101325.69;;;5.70;89.27
63090;BME280;49174;43.198;27.824;2023-03-14T18:25:59;101322.16;;;5.70;90.06
63090;BME280;49174;43.198;27.824;2023-03-14T18:28:26;101320.88;;;5.74;88.63
63090;BME280;49174;43.198;27.824;2023-03-14T18:30:59;101313.09;;;5.80;89.13
63090;BME280;49174;43.198;27.824;2023-03-14T18:33:25;101309.72;;;5.78;88.66
63090;BME280;49174;43.198;27.824;2023-03-14T18:35:50;101304.13;;;5.72;88.01
63090;BME280;49174;43.198;27.824;2023-03-14T18:38:17;101306.41;;;5.67;87.39
63090;BME280;49174;43.198;27.824;2023-03-14T18:40:42;101299.59;;;5.72;87.82
63090;BME280;49174;43.198;27.824;2023-03-14T18:43:08;101300.22;;;5.66;89.12
63090;BME280;49174;43.198;27.824;2023-03-14T18:45:35;101298.50;;;5.65;89.45
63090;BME280;49174;43.198;27.824;2023-03-14T18:48:02;101296.44;;;5.59;90.57
63090;BME280;49174;43.198;27.824;2023-03-14T18:50:27;101300.66;;;5.44;92.29
63090;BME280;49174;43.198;27.824;2023-03-14T18:52:53;101297.94;;;5.71;90.67
63090;BME280;49174;43.198;27.824;2023-03-14T18:55:18;101281.41;;;5.58;90.71
63090;BME280;49174;43.198;27.824;2023-03-14T18:57:44;101291.56;;;5.54;90.82
63090;BME280;49174;43.198;27.824;2023-03-14T19:00:10;101276.53;;;5.71;90.26
63090;BME280;49174;43.198;27.824;2023-03-14T19:02:38;101266.09;;;5.68;89.63
63090;BME280;49174;43.198;27.824;2023-03-14T19:05:05;101271.75;;;5.65;89.67
63090;BME280;49174;43.198;27.824;2023-03-14T19:07:30;101269.94;;;5.66;90.40
63090;BME280;49174;43.198;27.824;2023-03-14T19:09:59;101267.41;;;5.64;89.81
63090;BME280;49174;43.198;27.824;2023-03-14T19:12:26;101266.69;;;5.62;90.20
63090;BME280;49174;43.198;27.824;2023-03-14T19:14:53;101265.25;;;5.68;89.03
63090;BME280;49174;43.198;27.824;2023-03-14T19:17:19;101268.41;;;5.63;89.50